createdAt,value
2023-03-26T00:00:15.666Z,1.70
2023-03-26T00:01:05.891Z,1.65
2023-03-26T00:01:52.952Z,1.85
2023-03-26T00:02:40.087Z,1.70
2023-03-26T00:03:28.016Z,1.40
2023-03-26T00:04:14.930Z,2.00
2023-03-26T00:05:01.928Z,2.05
2023-03-26T00:05:49.076Z,2.10
2023-03-26T00:06:39.848Z,1.83
2023-03-26T00:07:28.157Z,1.77
2023-03-26T00:08:17.208Z,1.83
2023-03-26T00:09:05.324Z,1.37
2023-03-26T00:09:53.248Z,1.58
2023-03-26T00:10:41.043Z,1.90
2023-03-26T00:11:29.428Z,1.70
2023-03-26T00:12:16.367Z,1.45
2023-03-26T00:13:04.127Z,1.62
2023-03-26T00:13:53.770Z,2.12
2023-03-26T00:14:41.142Z,2.20
2023-03-26T00:15:28.046Z,1.42
2023-03-26T00:16:18.470Z,1.25
2023-03-26T00:17:05.623Z,1.70
2023-03-26T00:17:54.435Z,1.62
2023-03-26T00:18:42.781Z,1.60
2023-03-26T00:19:30.374Z,1.70
2023-03-26T00:20:17.378Z,1.60
2023-03-26T00:21:06.045Z,2.15
2023-03-26T00:21:53.451Z,1.65
2023-03-26T00:22:41.789Z,1.55
2023-03-26T00:23:29.819Z,1.60
2023-03-26T00:24:17.635Z,2.08
2023-03-26T00:25:05.854Z,2.12
2023-03-26T00:25:54.732Z,1.85
2023-03-26T00:26:42.342Z,2.03
2023-03-26T00:27:29.435Z,2.08
2023-03-26T00:28:17.417Z,2.10
2023-03-26T00:29:04.607Z,1.92
2023-03-26T00:29:52.097Z,1.65
2023-03-26T00:30:41.984Z,1.92
2023-03-26T00:31:28.985Z,1.58
2023-03-26T00:32:17.035Z,1.80
2023-03-26T00:33:04.227Z,1.67
2023-03-26T00:33:54.529Z,2.08
2023-03-26T00:34:41.678Z,2.05
2023-03-26T00:35:30.122Z,1.92
2023-03-26T00:36:17.885Z,1.62
2023-03-26T00:37:05.281Z,1.92
2023-03-26T00:37:53.617Z,2.00
2023-03-26T00:38:41.659Z,2.17
2023-03-26T00:39:29.670Z,1.75
2023-03-26T00:40:16.630Z,2.12
2023-03-26T00:41:06.296Z,1.70
2023-03-26T00:41:54.790Z,1.80
2023-03-26T00:42:42.716Z,1.92
2023-03-26T00:43:33.027Z,1.73
2023-03-26T00:44:21.072Z,1.95
2023-03-26T00:45:08.429Z,1.90
2023-03-26T00:45:56.087Z,1.90
2023-03-26T00:46:43.131Z,1.60
2023-03-26T00:47:31.122Z,1.67
2023-03-26T00:48:18.836Z,1.70
2023-03-26T00:49:05.805Z,2.05
2023-03-26T00:49:52.710Z,1.58
2023-03-26T00:50:40.043Z,1.90
2023-03-26T00:51:28.393Z,1.85
2023-03-26T00:52:19.180Z,1.83
2023-03-26T00:53:06.065Z,1.83
2023-03-26T00:53:53.056Z,1.87
2023-03-26T00:54:40.430Z,2.37
2023-03-26T00:55:27.343Z,2.03
2023-03-26T00:56:14.553Z,1.70
2023-03-26T00:57:01.521Z,1.85
2023-03-26T00:57:48.501Z,2.15
2023-03-26T00:58:35.714Z,2.08
2023-03-26T00:59:23.443Z,2.03
2023-03-26T01:00:15.379Z,1.73
2023-03-26T01:01:08.270Z,1.60
2023-03-26T01:01:55.240Z,2.20
2023-03-26T01:02:45.351Z,1.87
2023-03-26T01:03:35.187Z,1.87
2023-03-26T01:04:31.070Z,2.17
2023-03-26T01:05:48.953Z,1.60
2023-03-26T01:06:38.134Z,1.73
2023-03-26T01:07:29.215Z,1.73
2023-03-26T01:08:18.933Z,1.77
2023-03-26T01:09:14.695Z,2.43
2023-03-26T01:10:02.070Z,1.85
2023-03-26T01:10:54.291Z,1.77
2023-03-26T01:11:41.370Z,2.20
2023-03-26T01:12:32.210Z,1.70
2023-03-26T01:13:24.030Z,1.83
2023-03-26T01:14:18.133Z,1.58
2023-03-26T01:15:05.688Z,1.52
2023-03-26T01:15:53.202Z,2.20
2023-03-26T01:16:45.288Z,2.03
2023-03-26T01:17:34.511Z,1.95
2023-03-26T01:18:26.526Z,1.77
2023-03-26T01:19:42.454Z,1.60
2023-03-26T01:20:30.645Z,1.48
2023-03-26T01:21:23.337Z,2.08
2023-03-26T01:22:14.940Z,2.10
2023-03-26T01:23:08.017Z,1.85
2023-03-26T01:24:02.781Z,1.83
2023-03-26T01:24:54.109Z,1.55
2023-03-26T01:25:45.588Z,2.55
2023-03-26T01:27:10.059Z,1.80
2023-03-26T01:27:57.273Z,1.70
2023-03-26T01:28:44.200Z,2.00
2023-03-26T01:29:44.389Z,2.05
2023-03-26T01:30:42.510Z,2.08
2023-03-26T01:31:37.223Z,2.15
2023-03-26T01:32:47.802Z,1.87
2023-03-26T01:33:46.165Z,1.75
2023-03-26T01:35:00.812Z,2.37
2023-03-26T01:35:54.384Z,2.20
2023-03-26T01:36:56.700Z,2.10
2023-03-26T01:37:58.887Z,2.35
2023-03-26T01:39:06.141Z,2.45
2023-03-26T01:39:58.501Z,2.40
2023-03-26T01:40:58.941Z,2.20
2023-03-26T01:41:49.410Z,2.28
2023-03-26T01:43:07.048Z,2.28
2023-03-26T01:44:19.560Z,2.00
2023-03-26T01:45:17.589Z,1.60
2023-03-26T01:46:07.547Z,2.45
2023-03-26T01:46:54.863Z,2.60
2023-03-26T01:47:42.608Z,2.40
2023-03-26T01:48:40.739Z,2.42
2023-03-26T01:49:31.659Z,2.50
2023-03-26T01:50:18.618Z,2.62
2023-03-26T01:51:07.295Z,2.47
2023-03-26T01:51:56.794Z,2.20
2023-03-26T01:52:43.741Z,2.50
2023-03-26T01:53:32.023Z,2.60
2023-03-26T01:54:21.382Z,2.50
2023-03-26T01:55:12.941Z,2.20
2023-03-26T01:56:11.077Z,2.50
2023-03-26T01:57:14.961Z,2.90
2023-03-26T01:58:17.400Z,2.60
2023-03-26T01:59:29.188Z,2.35
2023-03-26T02:00:16.563Z,2.40
2023-03-26T02:01:18.214Z,2.37
2023-03-26T02:02:12.071Z,2.35
2023-03-26T02:03:02.152Z,2.35
2023-03-26T02:03:59.802Z,2.75
2023-03-26T02:04:57.989Z,2.47
2023-03-26T02:05:55.088Z,2.60
2023-03-26T02:06:47.078Z,2.50
2023-03-26T02:07:44.868Z,2.72
2023-03-26T02:08:41.487Z,2.60
2023-03-26T02:09:32.341Z,2.30
2023-03-26T02:10:34.445Z,2.60
2023-03-26T02:11:23.228Z,2.55
2023-03-26T02:12:10.446Z,2.65
2023-03-26T02:12:58.318Z,2.60
2023-03-26T02:13:46.424Z,2.83
2023-03-26T02:14:33.438Z,2.62
2023-03-26T02:15:20.933Z,2.90
2023-03-26T02:16:10.113Z,2.60
2023-03-26T02:16:59.128Z,2.78
2023-03-26T02:17:47.186Z,2.65
2023-03-26T02:18:36.993Z,2.53
2023-03-26T02:19:24.833Z,2.30
2023-03-26T02:20:14.528Z,2.78
2023-03-26T02:21:02.091Z,2.80
2023-03-26T02:21:52.338Z,2.47
2023-03-26T02:22:41.194Z,2.70
2023-03-26T02:23:29.871Z,2.87
2023-03-26T02:24:17.266Z,2.37
2023-03-26T02:25:04.315Z,2.83
2023-03-26T02:25:51.280Z,2.78
2023-03-26T02:26:38.470Z,2.92
2023-03-26T02:27:25.408Z,2.60
2023-03-26T02:28:12.323Z,2.80
2023-03-26T02:28:59.853Z,2.65
2023-03-26T02:29:47.934Z,2.67
2023-03-26T02:30:34.980Z,3.20
2023-03-26T02:31:22.105Z,2.70
2023-03-26T02:32:13.463Z,3.10
2023-03-26T02:33:00.497Z,2.40
2023-03-26T02:33:47.858Z,3.00
2023-03-26T02:34:34.762Z,2.53
2023-03-26T02:35:22.266Z,2.67
2023-03-26T02:36:10.995Z,3.00
2023-03-26T02:36:58.364Z,2.58
2023-03-26T02:37:47.159Z,3.03
2023-03-26T02:38:35.429Z,2.53
2023-03-26T02:39:22.379Z,2.75
2023-03-26T02:40:11.956Z,2.58
2023-03-26T02:40:58.864Z,2.50
2023-03-26T02:41:45.769Z,3.05
2023-03-26T02:42:33.520Z,2.75
2023-03-26T02:43:20.836Z,2.72
2023-03-26T02:44:07.744Z,2.53
2023-03-26T02:44:54.655Z,2.70
2023-03-26T02:45:41.576Z,2.92
2023-03-26T02:46:28.603Z,2.72
2023-03-26T02:47:15.556Z,2.72
2023-03-26T02:48:02.703Z,3.20
2023-03-26T02:48:50.144Z,2.80
2023-03-26T02:49:37.054Z,2.60
2023-03-26T02:50:24.307Z,2.65
2023-03-26T02:51:11.213Z,2.72
2023-03-26T02:51:58.376Z,2.50
2023-03-26T02:52:45.621Z,2.90
2023-03-26T02:53:33.349Z,2.62
2023-03-26T02:54:20.713Z,2.80
2023-03-26T02:55:07.936Z,2.70
2023-03-26T02:55:55.012Z,2.53
2023-03-26T02:56:42.072Z,2.80
2023-03-26T02:57:29.273Z,3.00
2023-03-26T02:58:17.665Z,2.80
2023-03-26T02:59:04.658Z,2.80
2023-03-26T02:59:53.050Z,2.90
2023-03-26T03:00:40.352Z,2.80
2023-03-26T03:01:31.117Z,2.70
2023-03-26T03:02:18.538Z,2.87
2023-03-26T03:03:07.038Z,3.10
2023-03-26T03:03:54.454Z,2.70
2023-03-26T03:04:41.382Z,2.95
2023-03-26T03:05:29.073Z,2.95
2023-03-26T03:06:20.236Z,2.90
2023-03-26T03:07:07.954Z,2.87
2023-03-26T03:07:58.481Z,3.00
2023-03-26T03:08:49.092Z,2.83
2023-03-26T03:10:23.351Z,3.50
2023-03-26T03:11:12.622Z,2.80
2023-03-26T03:12:07.657Z,3.00
2023-03-26T03:12:55.143Z,2.83
2023-03-26T03:13:42.843Z,2.67
2023-03-26T03:14:29.724Z,2.80
2023-03-26T03:15:16.645Z,2.47
2023-03-26T03:16:03.964Z,2.78
2023-03-26T03:16:50.971Z,2.47
2023-03-26T03:17:38.019Z,3.08
2023-03-26T03:18:43.449Z,2.67
2023-03-26T03:19:30.366Z,2.70
2023-03-26T03:20:17.990Z,2.85
2023-03-26T03:21:06.445Z,3.47
2023-03-26T03:21:53.406Z,3.03
2023-03-26T03:22:41.034Z,3.05
2023-03-26T03:23:27.975Z,2.78
2023-03-26T03:24:18.691Z,2.65
2023-03-26T03:25:09.225Z,2.80
2023-03-26T03:25:57.848Z,3.10
2023-03-26T03:26:46.048Z,3.00
2023-03-26T03:27:32.921Z,2.90
2023-03-26T03:28:20.321Z,3.05
2023-03-26T03:29:07.307Z,3.10
2023-03-26T03:29:56.017Z,3.03
2023-03-26T03:30:43.094Z,3.00
2023-03-26T03:31:30.076Z,2.45
2023-03-26T03:32:17.029Z,2.90
2023-03-26T03:33:04.254Z,3.00
2023-03-26T03:33:51.910Z,2.60
2023-03-26T03:34:39.105Z,2.58
2023-03-26T03:35:27.890Z,2.90
2023-03-26T03:36:20.095Z,2.83
2023-03-26T03:37:08.768Z,2.78
2023-03-26T03:37:57.058Z,2.58
2023-03-26T03:38:44.398Z,2.67
2023-03-26T03:39:31.419Z,2.60
2023-03-26T03:40:18.512Z,2.80
2023-03-26T03:41:05.959Z,2.28
2023-03-26T03:41:52.835Z,2.75
2023-03-26T03:42:39.811Z,2.60
2023-03-26T03:43:27.729Z,2.90
2023-03-26T03:44:14.608Z,3.05
2023-03-26T03:45:02.350Z,2.53
2023-03-26T03:45:49.277Z,2.70
2023-03-26T03:46:36.443Z,2.53
2023-03-26T03:47:23.401Z,2.72
2023-03-26T03:48:10.654Z,2.25
2023-03-26T03:48:57.643Z,2.35
2023-03-26T03:49:44.663Z,2.90
2023-03-26T03:50:34.294Z,2.47
2023-03-26T03:51:22.472Z,2.55
2023-03-26T03:52:09.338Z,2.65
2023-03-26T03:52:56.409Z,2.70
2023-03-26T03:53:43.335Z,2.70
2023-03-26T03:54:30.651Z,3.10
2023-03-26T03:55:17.558Z,2.60
2023-03-26T03:56:10.570Z,2.70
2023-03-26T03:56:57.676Z,2.50
2023-03-26T03:57:44.785Z,3.22
2023-03-26T03:58:31.776Z,2.55
2023-03-26T03:59:18.634Z,2.85
2023-03-26T04:00:08.320Z,3.12
2023-03-26T04:01:01.086Z,2.40
2023-03-26T04:01:48.735Z,2.50
2023-03-26T04:02:35.931Z,2.83
2023-03-26T04:03:33.370Z,2.75
2023-03-26T04:04:22.303Z,2.47
2023-03-26T04:05:11.791Z,2.58
2023-03-26T04:05:58.760Z,3.00
2023-03-26T04:06:45.759Z,2.65
2023-03-26T04:07:33.277Z,2.78
2023-03-26T04:08:20.439Z,2.30
2023-03-26T04:09:07.378Z,2.40
2023-03-26T04:09:54.553Z,2.80
2023-03-26T04:10:43.932Z,2.42
2023-03-26T04:11:31.018Z,2.72
2023-03-26T04:12:18.159Z,2.50
2023-03-26T04:13:05.041Z,2.45
2023-03-26T04:13:51.981Z,2.62
2023-03-26T04:14:39.018Z,2.70
2023-03-26T04:15:26.148Z,2.90
2023-03-26T04:16:13.029Z,2.65
2023-03-26T04:16:59.975Z,2.37
2023-03-26T04:17:47.038Z,2.70
2023-03-26T04:18:34.230Z,2.53
2023-03-26T04:19:21.582Z,2.65
2023-03-26T04:20:14.941Z,2.70
2023-03-26T04:21:02.691Z,3.30
2023-03-26T04:21:49.800Z,3.20
2023-03-26T04:22:36.776Z,2.92
2023-03-26T04:23:23.888Z,2.87
2023-03-26T04:24:11.255Z,2.97
2023-03-26T04:24:58.176Z,2.65
2023-03-26T04:25:48.623Z,3.10
2023-03-26T04:26:35.859Z,3.00
2023-03-26T04:27:27.479Z,3.22
2023-03-26T04:28:28.482Z,3.10
2023-03-26T04:29:17.362Z,3.12
2023-03-26T04:30:06.656Z,3.05
2023-03-26T04:30:54.848Z,3.47
2023-03-26T04:31:43.428Z,3.22
2023-03-26T04:32:34.480Z,3.10
2023-03-26T04:33:21.728Z,2.90
2023-03-26T04:34:18.901Z,2.78
2023-03-26T04:35:06.972Z,2.87
2023-03-26T04:35:54.727Z,2.55
2023-03-26T04:36:46.539Z,3.20
2023-03-26T04:37:41.846Z,2.80
2023-03-26T04:38:33.692Z,3.10
2023-03-26T04:39:29.468Z,3.25
2023-03-26T04:40:22.105Z,3.12
2023-03-26T04:41:13.775Z,3.20
2023-03-26T04:42:00.997Z,3.22
2023-03-26T04:42:48.066Z,3.35
2023-03-26T04:43:47.436Z,3.20
2023-03-26T04:44:35.137Z,2.80
2023-03-26T04:45:23.044Z,2.92
2023-03-26T04:46:10.725Z,3.30
2023-03-26T04:46:57.640Z,3.20
2023-03-26T04:47:46.843Z,3.10
2023-03-26T04:48:33.788Z,3.17
2023-03-26T04:49:20.881Z,3.53
2023-03-26T04:50:09.644Z,3.17
2023-03-26T04:50:56.908Z,3.30
2023-03-26T04:51:46.408Z,3.10
2023-03-26T04:52:33.763Z,3.40
2023-03-26T04:53:24.504Z,3.53
2023-03-26T04:54:12.938Z,3.28
2023-03-26T04:55:00.502Z,3.40
2023-03-26T04:56:08.689Z,3.40
2023-03-26T04:57:04.175Z,3.20
2023-03-26T04:57:55.249Z,3.25
2023-03-26T04:58:42.209Z,3.55
2023-03-26T04:59:35.201Z,3.40
2023-03-26T05:00:22.457Z,3.50
2023-03-26T05:01:11.369Z,3.83
2023-03-26T05:02:00.278Z,3.67
2023-03-26T05:02:50.645Z,3.47
2023-03-26T05:03:41.564Z,3.30
2023-03-26T05:04:32.256Z,3.90
2023-03-26T05:06:06.240Z,3.62
2023-03-26T05:06:53.926Z,3.80
2023-03-26T05:07:42.367Z,3.45
2023-03-26T05:08:29.732Z,3.80
2023-03-26T05:09:16.750Z,4.03
2023-03-26T05:10:05.200Z,3.40
2023-03-26T05:10:52.084Z,3.67
2023-03-26T05:11:39.109Z,4.40
2023-03-26T05:12:26.006Z,3.60
2023-03-26T05:13:12.885Z,4.47
2023-03-26T05:13:59.838Z,4.25
2023-03-26T05:14:46.807Z,4.35
2023-03-26T05:15:33.725Z,4.45
2023-03-26T05:16:20.800Z,4.05
2023-03-26T05:17:11.042Z,4.20
2023-03-26T05:17:58.456Z,4.03
2023-03-26T05:18:46.915Z,4.53
2023-03-26T05:19:33.898Z,4.12
2023-03-26T05:20:24.196Z,4.40
2023-03-26T05:21:11.387Z,4.00
2023-03-26T05:21:58.424Z,4.18
2023-03-26T05:22:45.365Z,4.12
2023-03-26T05:23:32.265Z,4.47
2023-03-26T05:24:20.097Z,4.45
2023-03-26T05:25:07.810Z,3.90
2023-03-26T05:25:54.842Z,4.05
2023-03-26T05:26:41.729Z,4.12
2023-03-26T05:27:28.598Z,4.18
2023-03-26T05:28:15.638Z,4.20
2023-03-26T05:29:03.356Z,4.30
2023-03-26T05:29:50.533Z,4.37
2023-03-26T05:30:37.399Z,4.00
2023-03-26T05:31:25.396Z,3.95
2023-03-26T05:32:12.873Z,4.40
2023-03-26T05:32:59.906Z,4.47
2023-03-26T05:33:47.670Z,4.45
2023-03-26T05:34:34.656Z,3.92
2023-03-26T05:35:21.918Z,4.22
2023-03-26T05:36:13.667Z,4.20
2023-03-26T05:37:00.853Z,4.05
2023-03-26T05:37:49.791Z,4.37
2023-03-26T05:38:37.366Z,4.20
2023-03-26T05:39:26.588Z,4.28
2023-03-26T05:40:17.188Z,4.18
2023-03-26T05:41:53.202Z,4.20
2023-03-26T05:42:40.826Z,4.10
2023-03-26T05:43:28.912Z,4.22
2023-03-26T05:44:15.867Z,5.30
2023-03-26T05:45:02.818Z,3.97
2023-03-26T05:45:49.749Z,4.10
2023-03-26T05:46:37.091Z,4.30
2023-03-26T05:47:24.013Z,4.18
2023-03-26T05:48:11.098Z,4.45
2023-03-26T05:48:58.049Z,4.40
2023-03-26T05:49:45.000Z,4.72
2023-03-26T05:50:31.926Z,4.22
2023-03-26T05:51:18.899Z,4.28
2023-03-26T05:52:06.862Z,4.45
2023-03-26T05:52:53.819Z,4.30
2023-03-26T05:53:40.834Z,4.20
2023-03-26T05:54:27.897Z,4.20
2023-03-26T05:55:14.859Z,4.07
2023-03-26T05:56:02.274Z,3.95
2023-03-26T05:56:49.371Z,3.90
2023-03-26T05:57:36.653Z,3.90
2023-03-26T05:58:34.133Z,3.87
2023-03-26T05:59:21.086Z,3.92
2023-03-26T06:00:12.269Z,3.72
2023-03-26T06:01:06.048Z,4.03
2023-03-26T06:01:54.769Z,4.25
2023-03-26T06:02:44.072Z,4.28
2023-03-26T06:03:31.873Z,4.10
2023-03-26T06:04:19.003Z,3.92
2023-03-26T06:05:06.326Z,3.97
2023-03-26T06:05:53.227Z,4.10
2023-03-26T06:06:40.247Z,3.83
2023-03-26T06:07:27.361Z,4.03
2023-03-26T06:08:14.361Z,4.37
2023-03-26T06:09:03.049Z,4.03
2023-03-26T06:09:49.976Z,4.12
2023-03-26T06:10:39.796Z,4.40
2023-03-26T06:11:26.848Z,4.30
2023-03-26T06:12:14.187Z,4.18
2023-03-26T06:13:01.153Z,4.50
2023-03-26T06:13:50.535Z,4.15
2023-03-26T06:14:37.866Z,3.83
2023-03-26T06:15:25.123Z,4.50
2023-03-26T06:16:26.398Z,4.30
2023-03-26T06:17:14.340Z,4.30
2023-03-26T06:18:01.575Z,4.28
2023-03-26T06:18:48.893Z,4.15
2023-03-26T06:19:43.694Z,4.10
2023-03-26T06:20:30.689Z,4.40
2023-03-26T06:21:18.565Z,4.30
2023-03-26T06:22:05.816Z,3.90
2023-03-26T06:22:52.681Z,4.15
2023-03-26T06:23:39.565Z,4.30
2023-03-26T06:24:26.597Z,4.25
2023-03-26T06:25:13.496Z,4.18
2023-03-26T06:26:00.374Z,4.15
2023-03-26T06:26:47.743Z,4.47
2023-03-26T06:27:35.640Z,4.65
2023-03-26T06:28:22.661Z,4.30
2023-03-26T06:29:09.609Z,4.30
2023-03-26T06:29:57.729Z,4.50
2023-03-26T06:30:44.944Z,4.50
2023-03-26T06:31:31.803Z,4.32
2023-03-26T06:32:20.617Z,4.28
2023-03-26T06:33:08.601Z,4.07
2023-03-26T06:33:55.449Z,4.32
2023-03-26T06:34:42.678Z,4.47
2023-03-26T06:35:30.867Z,4.62
2023-03-26T06:36:17.890Z,4.85
2023-03-26T06:37:08.568Z,4.50
2023-03-26T06:38:10.038Z,4.40
2023-03-26T06:38:57.007Z,4.43
2023-03-26T06:39:44.319Z,4.43
2023-03-26T06:40:31.191Z,5.05
2023-03-26T06:41:18.184Z,4.20
2023-03-26T06:42:05.266Z,4.32
2023-03-26T06:43:09.478Z,4.07
2023-03-26T06:43:57.377Z,3.90
2023-03-26T06:44:44.249Z,3.92
2023-03-26T06:45:33.144Z,4.03
2023-03-26T06:47:07.020Z,4.07
2023-03-26T06:47:53.831Z,4.25
2023-03-26T06:48:42.306Z,3.90
2023-03-26T06:49:29.322Z,4.10
2023-03-26T06:50:16.457Z,4.75
2023-03-26T06:51:03.619Z,4.37
2023-03-26T06:51:55.047Z,4.53
2023-03-26T06:52:47.641Z,4.50
2023-03-26T06:53:34.577Z,4.35
2023-03-26T06:54:21.481Z,4.65
2023-03-26T06:55:10.579Z,4.53
2023-03-26T06:55:57.425Z,4.53
2023-03-26T06:56:45.182Z,4.75
2023-03-26T06:57:32.252Z,5.07
2023-03-26T06:58:19.295Z,4.50
2023-03-26T06:59:06.397Z,4.05
2023-03-26T06:59:53.214Z,4.15
2023-03-26T07:00:40.751Z,4.60
2023-03-26T07:01:27.634Z,4.68
2023-03-26T07:02:14.517Z,4.30
2023-03-26T07:03:04.413Z,4.40
2023-03-26T07:03:51.534Z,4.25
2023-03-26T07:04:38.809Z,4.03
2023-03-26T07:05:25.649Z,4.47
2023-03-26T07:06:12.494Z,4.20
2023-03-26T07:06:59.531Z,4.68
2023-03-26T07:07:47.441Z,4.40
2023-03-26T07:08:34.473Z,4.10
2023-03-26T07:09:21.778Z,4.35
2023-03-26T07:10:09.410Z,4.20
2023-03-26T07:10:57.301Z,4.82
2023-03-26T07:11:44.488Z,4.00
2023-03-26T07:12:31.477Z,3.97
2023-03-26T07:13:18.297Z,4.30
2023-03-26T07:14:05.373Z,4.20
2023-03-26T07:14:52.381Z,4.40
2023-03-26T07:15:39.262Z,4.20
2023-03-26T07:16:26.222Z,4.22
2023-03-26T07:17:13.113Z,4.15
2023-03-26T07:18:00.937Z,4.50
2023-03-26T07:18:51.645Z,4.12
2023-03-26T07:19:41.532Z,4.72
2023-03-26T07:20:28.895Z,4.00
2023-03-26T07:21:15.962Z,4.60
2023-03-26T07:22:03.323Z,4.40
2023-03-26T07:22:50.682Z,4.37
2023-03-26T07:23:37.858Z,4.10
2023-03-26T07:24:25.367Z,4.32
2023-03-26T07:25:14.134Z,4.00
2023-03-26T07:26:03.133Z,4.60
2023-03-26T07:27:11.219Z,4.97
2023-03-26T07:28:20.784Z,4.65
2023-03-26T07:29:16.286Z,4.50
2023-03-26T07:30:09.991Z,4.62
2023-03-26T07:31:05.495Z,4.25
2023-03-26T07:32:04.283Z,4.18
2023-03-26T07:32:55.514Z,4.53
2023-03-26T07:34:04.210Z,4.43
2023-03-26T07:34:58.633Z,4.50
2023-03-26T07:35:51.062Z,4.37
2023-03-26T07:36:58.088Z,4.45
2023-03-26T07:37:56.329Z,4.25
2023-03-26T07:39:09.650Z,4.10
2023-03-26T07:40:03.932Z,4.12
2023-03-26T07:40:57.709Z,4.43
2023-03-26T07:42:04.976Z,4.40
2023-03-26T07:43:06.654Z,4.45
2023-03-26T07:44:25.559Z,4.57
2023-03-26T07:45:34.069Z,4.37
2023-03-26T07:46:27.850Z,4.30
2023-03-26T07:47:26.372Z,4.37
2023-03-26T07:48:18.048Z,4.00
2023-03-26T07:49:05.262Z,4.55
2023-03-26T07:49:57.887Z,4.78
2023-03-26T07:50:45.605Z,4.22
2023-03-26T07:51:33.169Z,4.32
2023-03-26T07:52:20.296Z,4.22
2023-03-26T07:53:07.776Z,4.30
2023-03-26T07:53:55.217Z,4.37
2023-03-26T07:54:42.327Z,4.78
2023-03-26T07:55:29.538Z,4.75
2023-03-26T07:56:19.878Z,4.62
2023-03-26T07:57:11.255Z,4.18
2023-03-26T07:58:27.238Z,4.25
2023-03-26T07:59:23.129Z,4.85
2023-03-26T08:00:14.407Z,4.00
2023-03-26T08:01:19.600Z,4.30
2023-03-26T08:02:16.584Z,4.10
2023-03-26T08:03:29.441Z,4.45
2023-03-26T08:04:44.358Z,4.72
2023-03-26T08:05:34.885Z,4.50
2023-03-26T08:07:40.225Z,4.50
2023-03-26T08:08:34.076Z,4.75
2023-03-26T08:09:59.328Z,4.97
2023-03-26T08:11:04.359Z,4.70
2023-03-26T08:12:12.847Z,4.50
2023-03-26T08:13:19.525Z,4.50
2023-03-26T08:14:08.969Z,5.10
2023-03-26T08:15:01.255Z,4.22
2023-03-26T08:16:05.729Z,4.50
2023-03-26T08:17:36.966Z,4.10
2023-03-26T08:18:38.914Z,4.05
2023-03-26T08:19:31.914Z,4.65
2023-03-26T08:20:26.315Z,4.47
2023-03-26T08:21:25.716Z,4.32
2023-03-26T08:22:17.394Z,4.10
2023-03-26T08:23:23.896Z,4.80
2023-03-26T08:24:25.698Z,6.18
2023-03-26T08:25:37.372Z,27.40
2023-03-26T08:27:03.066Z,21.52
2023-03-26T08:27:59.052Z,7.90
2023-03-26T08:29:27.697Z,6.43
2023-03-26T08:30:19.804Z,4.57
2023-03-26T08:31:10.594Z,4.30
2023-03-26T08:31:57.788Z,4.30
2023-03-26T08:32:59.597Z,4.05
2023-03-26T08:33:46.597Z,4.03
2023-03-26T08:34:33.456Z,7.05
2023-03-26T08:35:20.398Z,19.73
2023-03-26T08:36:09.460Z,18.85
2023-03-26T08:36:56.334Z,13.80
2023-03-26T08:37:45.448Z,11.98
2023-03-26T08:38:32.508Z,37.33
2023-03-26T08:39:22.463Z,17.92
2023-03-26T08:40:09.886Z,17.08
2023-03-26T08:41:12.037Z,12.43
2023-03-26T08:42:17.377Z,6.20
2023-03-26T08:43:17.736Z,4.90
2023-03-26T08:44:22.643Z,6.75
2023-03-26T08:45:51.569Z,5.12
2023-03-26T08:47:10.474Z,4.35
2023-03-26T08:48:03.996Z,4.50
2023-03-26T08:49:25.910Z,4.28
2023-03-26T08:50:21.479Z,4.35
2023-03-26T08:51:23.195Z,4.95
2023-03-26T08:52:25.764Z,6.65
2023-03-26T08:53:50.050Z,8.50
2023-03-26T08:54:48.966Z,8.27
2023-03-26T08:55:44.265Z,9.07
2023-03-26T08:56:59.447Z,6.87
2023-03-26T08:58:09.197Z,8.07
2023-03-26T08:59:43.603Z,8.73
2023-03-26T09:00:52.347Z,6.75
2023-03-26T09:01:54.012Z,6.93
2023-03-26T09:03:01.755Z,6.90
2023-03-26T09:03:48.637Z,5.45
2023-03-26T09:05:05.965Z,7.28
2023-03-26T09:06:24.826Z,15.98
2023-03-26T09:07:48.274Z,16.52
2023-03-26T09:09:08.895Z,8.93
2023-03-26T09:10:09.617Z,8.85
2023-03-26T09:11:17.395Z,8.80
2023-03-26T09:12:35.477Z,7.15
2023-03-26T09:13:41.061Z,9.23
2023-03-26T09:15:06.586Z,17.80
2023-03-26T09:16:06.624Z,11.12
2023-03-26T09:17:22.643Z,6.12
2023-03-26T09:18:21.371Z,5.30
2023-03-26T09:19:23.467Z,4.25
2023-03-26T09:20:27.080Z,5.65
2023-03-26T09:21:47.822Z,4.97
2023-03-26T09:22:41.107Z,4.20
2023-03-26T09:23:52.863Z,5.70
2023-03-26T09:25:16.976Z,12.32
2023-03-26T09:26:19.165Z,7.20
2023-03-26T09:27:09.464Z,8.52
2023-03-26T09:28:02.509Z,10.55
2023-03-26T09:29:22.308Z,8.73
2023-03-26T09:30:31.849Z,6.28
2023-03-26T09:32:06.208Z,7.95
2023-03-26T09:33:17.158Z,18.17
2023-03-26T09:35:14.747Z,21.60
2023-03-26T09:36:34.545Z,19.05
2023-03-26T09:37:56.257Z,6.70
2023-03-26T09:38:52.971Z,5.12
2023-03-26T09:39:53.869Z,9.45
2023-03-26T09:41:06.739Z,6.75
2023-03-26T09:42:05.809Z,5.07
2023-03-26T09:42:55.620Z,5.32
2023-03-26T09:44:12.937Z,4.95
2023-03-26T09:45:22.887Z,6.32
2023-03-26T09:46:41.459Z,5.50
2023-03-26T09:47:45.976Z,7.78
2023-03-26T09:48:33.233Z,6.68
2023-03-26T09:49:49.968Z,7.00
2023-03-26T09:50:59.964Z,5.75
2023-03-26T09:52:01.212Z,4.80
2023-03-26T09:52:50.741Z,4.60
2023-03-26T09:53:56.367Z,5.07
2023-03-26T09:55:28.626Z,7.03
2023-03-26T09:56:32.401Z,9.00
2023-03-26T09:57:40.924Z,6.60
2023-03-26T09:58:46.309Z,7.65
2023-03-26T10:00:03.368Z,6.72
2023-03-26T10:01:01.291Z,5.30
2023-03-26T10:02:08.766Z,5.60
2023-03-26T10:03:07.850Z,5.35
2023-03-26T10:04:33.593Z,6.03
2023-03-26T10:05:30.540Z,4.87
2023-03-26T10:06:36.935Z,5.07
2023-03-26T10:07:53.961Z,6.47
2023-03-26T10:09:22.219Z,4.80
2023-03-26T10:10:18.660Z,5.50
2023-03-26T10:11:16.580Z,5.50
2023-03-26T10:12:15.188Z,9.20
2023-03-26T10:13:14.782Z,9.10
2023-03-26T10:14:21.080Z,7.37
2023-03-26T10:15:32.159Z,7.47
2023-03-26T10:16:25.147Z,11.77
2023-03-26T10:17:39.966Z,17.37
2023-03-26T10:18:49.932Z,7.53
2023-03-26T10:20:09.943Z,6.37
2023-03-26T10:21:19.485Z,5.25
2023-03-26T10:22:35.012Z,12.30
2023-03-26T10:23:43.737Z,11.00
2023-03-26T10:24:39.648Z,11.25
2023-03-26T10:26:07.318Z,7.10
2023-03-26T10:27:09.019Z,4.55
2023-03-26T10:28:25.738Z,4.20
2023-03-26T10:29:53.439Z,4.35
2023-03-26T10:31:06.689Z,4.28
2023-03-26T10:32:21.381Z,4.10
2023-03-26T10:33:24.989Z,7.10
2023-03-26T10:34:19.417Z,9.18
2023-03-26T10:35:34.537Z,12.10
2023-03-26T10:36:30.010Z,13.02
2023-03-26T10:37:35.728Z,9.48
2023-03-26T10:38:36.456Z,11.45
2023-03-26T10:40:43.489Z,10.90
2023-03-26T10:41:54.811Z,7.53
2023-03-26T10:42:44.665Z,6.37
2023-03-26T10:44:09.933Z,16.08
2023-03-26T10:45:22.189Z,10.00
2023-03-26T10:46:31.581Z,5.37
2023-03-26T10:47:54.348Z,4.50
2023-03-26T10:49:09.364Z,4.32
2023-03-26T10:50:16.947Z,3.67
2023-03-26T10:52:08.665Z,3.50
2023-03-26T10:53:14.215Z,4.40
2023-03-26T10:54:07.016Z,3.78
2023-03-26T10:55:25.339Z,4.35
2023-03-26T10:56:15.953Z,5.15
2023-03-26T10:57:18.580Z,3.15
2023-03-26T10:58:24.977Z,4.55
2023-03-26T10:59:16.578Z,6.15
2023-03-26T11:00:27.577Z,5.85
2023-03-26T11:03:01.030Z,8.73
2023-03-26T11:03:54.448Z,10.32
2023-03-26T11:05:30.703Z,4.60
2023-03-26T11:06:45.948Z,4.47
2023-03-26T11:07:52.068Z,10.02
2023-03-26T11:08:52.278Z,12.07
2023-03-26T11:09:53.114Z,6.40
2023-03-26T11:10:52.310Z,7.62
2023-03-26T11:11:56.775Z,4.10
2023-03-26T11:13:32.255Z,4.30
2023-03-26T11:14:41.710Z,4.10
2023-03-26T11:15:32.601Z,4.00
2023-03-26T11:16:29.974Z,3.80
2023-03-26T11:17:40.883Z,3.85
2023-03-26T11:19:09.922Z,7.82
2023-03-26T11:20:05.994Z,10.02
2023-03-26T11:21:19.403Z,10.13
2023-03-26T11:22:23.110Z,7.53
2023-03-26T11:23:23.227Z,4.68
2023-03-26T11:24:28.448Z,28.87
2023-03-26T11:25:42.627Z,6.37
2023-03-26T11:26:50.016Z,8.48
2023-03-26T11:27:40.225Z,14.15
2023-03-26T11:29:03.425Z,10.25
2023-03-26T11:30:06.600Z,9.48
2023-03-26T11:31:19.119Z,7.82
2023-03-26T11:32:16.024Z,10.55
2023-03-26T11:33:07.030Z,8.30
2023-03-26T11:33:57.620Z,11.05
2023-03-26T11:35:06.062Z,32.42
2023-03-26T11:35:56.668Z,14.70
2023-03-26T11:37:44.448Z,11.02
2023-03-26T11:38:38.688Z,8.60
2023-03-26T11:39:30.834Z,13.48
2023-03-26T11:40:35.952Z,8.65
2023-03-26T11:41:25.585Z,7.85
2023-03-26T11:42:15.450Z,11.38
2023-03-26T11:43:05.321Z,5.80
2023-03-26T11:44:07.488Z,5.50
2023-03-26T11:45:00.351Z,8.43
2023-03-26T11:45:49.774Z,11.05
2023-03-26T11:46:40.630Z,6.93
2023-03-26T11:47:45.158Z,6.07
2023-03-26T11:48:51.688Z,5.80
2023-03-26T11:49:43.725Z,7.97
2023-03-26T11:50:33.327Z,7.80
2023-03-26T11:51:49.418Z,6.53
2023-03-26T11:52:37.025Z,3.80
2023-03-26T11:53:29.484Z,6.93
2023-03-26T11:54:18.227Z,11.07
2023-03-26T11:55:05.549Z,8.88
2023-03-26T11:56:32.748Z,9.07
2023-03-26T11:57:23.667Z,10.73
2023-03-26T11:58:40.939Z,13.20
2023-03-26T11:59:37.022Z,8.82
2023-03-26T12:01:30.552Z,4.60
2023-03-26T12:02:34.635Z,3.42
2023-03-26T12:03:21.782Z,4.07
2023-03-26T12:04:14.774Z,3.60
2023-03-26T12:05:18.815Z,3.30
2023-03-26T12:06:06.082Z,3.80